Time;durP1;ratioP1;P1;durP2;ratioP2;P2;SDS_P1;SDS_P2;PMS_P1;PMS_P2;Temp;Humidity;BMP_temperature;BMP_pressure;BME280_temperature;BME280_humidity;BME280_pressure;Samples;Min_cycle;Max_cycle;Signal;HPM_P1;HPM_P2
2024/03/01 00:02:26;;;;;;;;;;;;;;;26.65;38.81;93193.44;5058939;28;7044;-42
2024/03/01 00:04:55;;;;;;;;;;;;;;;26.63;38.50;93196.75;5058131;28;8390;-42
2024/03/01 00:07:30;;;;;;;;;;;;;;;26.62;38.46;93192.50;5056915;28;7217;-42
2024/03/01 00:10:02;;;;;;;;;;;;;;;26.66;38.11;93194.91;5065870;28;8772;-43
2024/03/01 00:12:31;;;;;;;;;;;;;;;26.64;38.49;93191.97;5058022;28;7767;-42
2024/03/01 00:15:04;;;;;;;;;;;;;;;26.63;38.66;93201.50;5076673;28;9372;-39
2024/03/01 00:17:32;;;;;;;;;;;;;;;26.61;38.31;93198.56;5059667;28;7941;-40
2024/03/01 00:20:38;;;;;;;;;;;;;;;26.61;38.84;93207.59;5057265;28;9005;-39
2024/03/01 00:23:06;;;;;;;;;;;;;;;26.60;38.51;93217.13;5064190;28;9077;-40
2024/03/01 00:25:32;;;;;;;;;;;;;;;26.60;38.57;93214.38;5058055;28;8832;-38
2024/03/01 00:28:00;;;;;;;;;;;;;;;26.59;38.74;93215.66;5078048;28;6995;-38
2024/03/01 00:30:26;;;;;;;;;;;;;;;26.58;38.76;93210.69;5091688;28;7195;-38
2024/03/01 00:32:59;;;;;;;;;;;;;;;26.57;37.96;93221.00;5071605;28;7358;-38
2024/03/01 00:35:27;;;;;;;;;;;;;;;26.57;38.28;93218.25;5075608;28;6903;-38
2024/03/01 00:38:07;;;;;;;;;;;;;;;26.58;38.36;93213.44;5082953;28;7373;-38
2024/03/01 00:40:33;;;;;;;;;;;;;;;26.59;38.59;93210.16;5058595;28;7053;-38
2024/03/01 00:42:58;;;;;;;;;;;;;;;26.59;38.44;93198.38;5051104;28;9058;-38
2024/03/01 00:45:29;;;;;;;;;;;;;;;26.57;38.45;93196.19;5059055;28;6860;-38
2024/03/01 00:47:55;;;;;;;;;;;;;;;26.60;38.65;93208.13;5054891;28;9427;-38
2024/03/01 00:50:24;;;;;;;;;;;;;;;26.62;38.35;93205.56;5077140;28;7211;-38
2024/03/01 00:52:52;;;;;;;;;;;;;;;26.59;38.44;93207.41;5075006;28;7329;-37
2024/03/01 00:55:19;;;;;;;;;;;;;;;26.60;38.36;93216.41;5075168;28;7026;-38
2024/03/01 00:57:49;;;;;;;;;;;;;;;26.59;38.92;93215.66;5059360;28;8832;-37
2024/03/01 01:00:16;;;;;;;;;;;;;;;26.60;38.49;93208.13;5057004;28;9398;-38
2024/03/01 01:02:42;;;;;;;;;;;;;;;26.59;38.33;93217.69;5077525;28;7255;-38
2024/03/01 01:05:11;;;;;;;;;;;;;;;26.57;38.55;93212.72;5057934;28;7097;-37
2024/03/01 01:07:39;;;;;;;;;;;;;;;26.58;38.29;93216.94;5068165;28;7942;-37
2024/03/01 01:10:15;;;;;;;;;;;;;;;26.59;38.64;93214.94;5067164;28;7045;-38
2024/03/01 01:12:47;;;;;;;;;;;;;;;26.58;38.92;93210.69;5080722;28;7034;-37
2024/03/01 01:15:14;;;;;;;;;;;;;;;26.59;38.14;93207.41;5053498;28;7101;-38
2024/03/01 01:17:44;;;;;;;;;;;;;;;26.59;38.44;93212.91;5054026;28;8969;-38
2024/03/01 01:20:13;;;;;;;;;;;;;;;26.58;37.92;93219.69;5072886;28;9422;-38
2024/03/01 01:22:39;;;;;;;;;;;;;;;26.56;38.29;93207.72;5053916;28;7268;-38
2024/03/01 01:25:06;;;;;;;;;;;;;;;26.57;38.52;93211.97;5072816;28;7562;-38
2024/03/01 01:27:32;;;;;;;;;;;;;;;26.58;38.33;93227.97;5058329;28;8153;-38
2024/03/01 01:29:58;;;;;;;;;;;;;;;26.57;38.69;93215.47;5071892;28;7355;-37
2024/03/01 01:32:23;;;;;;;;;;;;;;;26.55;38.16;93218.03;5063194;28;9075;-38
2024/03/01 01:34:52;;;;;;;;;;;;;;;26.58;38.66;93235.50;5055757;28;9033;-38
2024/03/01 01:37:20;;;;;;;;;;;;;;;26.57;38.77;93240.31;5078873;28;7606;-38
2024/03/01 01:39:47;;;;;;;;;;;;;;;26.57;38.11;93232.03;5056444;28;7113;-38
2024/03/01 01:42:18;;;;;;;;;;;;;;;26.57;37.94;93231.28;5054253;28;7293;-38
2024/03/01 01:44:46;;;;;;;;;;;;;;;26.58;38.21;93232.75;5074874;28;7042;-37
2024/03/01 01:47:14;;;;;;;;;;;;;;;26.54;37.83;93233.09;5055230;28;6947;-38
2024/03/01 01:49:45;;;;;;;;;;;;;;;26.56;38.36;93240.81;5071998;28;6996;-38
2024/03/01 01:52:11;;;;;;;;;;;;;;;26.55;38.38;93242.13;5053876;28;7058;-38
2024/03/01 01:54:37;;;;;;;;;;;;;;;26.53;38.01;93241.94;5056832;28;7033;-38
2024/03/01 01:57:05;;;;;;;;;;;;;;;26.52;38.09;93251.47;5071151;28;7042;-38
2024/03/01 01:59:34;;;;;;;;;;;;;;;26.53;38.23;93244.69;5054487;28;7290;-38
2024/03/01 02:02:01;;;;;;;;;;;;;;;26.53;38.48;93248.19;5063759;28;9172;-38
2024/03/01 02:04:27;;;;;;;;;;;;;;;26.53;38.21;93258.47;5058003;28;7092;-38
2024/03/01 02:06:55;;;;;;;;;;;;;;;26.54;38.48;93259.94;5071890;28;7070;-37
2024/03/01 02:09:23;;;;;;;;;;;;;;;26.53;38.30;93256.47;5062142;28;9222;-38
2024/03/01 02:11:49;;;;;;;;;;;;;;;26.55;38.46;93253.16;5063759;28;6955;-38
2024/03/01 02:14:14;;;;;;;;;;;;;;;26.52;38.42;93257.00;5072298;28;7036;-38
2024/03/01 02:16:41;;;;;;;;;;;;;;;26.51;38.71;93250.00;5043890;28;9208;-37
2024/03/01 02:19:37;;;;;;;;;;;;;;;26.56;38.46;93251.84;5090423;28;9119;-37
2024/03/01 02:22:08;;;;;;;;;;;;;;;26.54;38.24;93248.91;5074759;28;9078;-38
2024/03/01 02:24:34;;;;;;;;;;;;;;;26.55;38.30;93244.88;5055530;28;7049;-38
2024/03/01 02:27:02;;;;;;;;;;;;;;;26.54;38.22;93238.63;5070302;28;7471;-38
2024/03/01 02:29:28;;;;;;;;;;;;;;;26.55;38.59;93237.34;5059660;28;7030;-38
2024/03/01 02:31:55;;;;;;;;;;;;;;;26.54;38.09;93229.59;5050872;28;7274;-38
2024/03/01 02:34:21;;;;;;;;;;;;;;;26.54;38.49;93226.84;5066545;28;8189;-38
2024/03/01 02:36:49;;;;;;;;;;;;;;;26.52;38.24;93223.91;5054045;28;7319;-38
2024/03/01 02:39:18;;;;;;;;;;;;;;;26.54;38.78;93222.06;5079668;28;7060;-38
2024/03/01 02:41:48;;;;;;;;;;;;;;;26.53;38.31;93219.88;5051840;28;7114;-38
2024/03/01 02:44:14;;;;;;;;;;;;;;;26.52;38.32;93218.38;5053013;28;7606;-53
2024/03/01 02:46:40;;;;;;;;;;;;;;;26.52;38.45;93215.63;5067949;28;9216;-55
2024/03/01 02:49:09;;;;;;;;;;;;;;;26.48;38.65;93215.25;5053305;28;7092;-56
2024/03/01 02:51:40;;;;;;;;;;;;;;;26.50;38.48;93223.69;5050474;28;6997;-56
2024/03/01 02:54:06;;;;;;;;;;;;;;;26.49;38.46;93222.25;5051045;28;8975;-56
2024/03/01 02:56:35;;;;;;;;;;;;;;;26.47;37.97;93222.06;5060460;28;6987;-56
2024/03/01 02:59:01;;;;;;;;;;;;;;;26.50;38.18;93220.94;5061599;28;7813;-56
2024/03/01 03:01:31;;;;;;;;;;;;;;;26.46;38.28;93220.56;5050379;28;7100;-56
2024/03/01 03:03:59;;;;;;;;;;;;;;;26.49;38.40;93219.50;5064909;28;7605;-56
2024/03/01 03:06:27;;;;;;;;;;;;;;;26.46;38.01;93220.56;5053916;28;7038;-56
2024/03/01 03:08:54;;;;;;;;;;;;;;;26.48;38.51;93229.03;5054029;28;7530;-56
2024/03/01 03:11:20;;;;;;;;;;;;;;;26.50;38.66;93232.72;5052286;28;7330;-56
2024/03/01 03:13:48;;;;;;;;;;;;;;;26.47;38.06;93230.31;5058096;28;7198;-56
2024/03/01 03:16:17;;;;;;;;;;;;;;;26.50;38.01;93229.22;5059558;28;7216;-56
2024/03/01 03:18:43;;;;;;;;;;;;;;;26.50;38.39;93232.72;5077926;28;9038;-56
2024/03/01 03:21:38;;;;;;;;;;;;;;;26.50;38.58;93231.97;5047729;28;7290;-56
2024/03/01 03:24:04;;;;;;;;;;;;;;;26.48;38.27;93234.53;5030910;28;7017;-56
2024/03/01 03:26:33;;;;;;;;;;;;;;;26.48;38.26;93238.03;5033497;28;7252;-56
2024/03/01 03:29:01;;;;;;;;;;;;;;;26.49;37.89;93234.00;5035536;28;7734;-56
2024/03/01 03:31:27;;;;;;;;;;;;;;;26.47;38.66;93235.84;5062340;28;7882;-56
2024/03/01 03:34:09;;;;;;;;;;;;;;;26.46;38.27;93237.84;5059981;28;7252;-55
2024/03/01 03:36:54;;;;;;;;;;;;;;;26.46;38.52;93235.09;5023285;28;7048;-56
2024/03/01 03:39:35;;;;;;;;;;;;;;;26.47;38.14;93236.56;5046383;28;8846;-56
2024/03/01 03:42:35;;;;;;;;;;;;;;;26.48;38.42;93240.06;5038994;28;7329;-55
2024/03/01 03:45:01;;;;;;;;;;;;;;;26.47;38.21;93255.13;5053937;28;7063;-56
2024/03/01 03:47:28;;;;;;;;;;;;;;;26.46;38.53;93256.41;5050686;28;7112;-56
2024/03/01 03:49:54;;;;;;;;;;;;;;;26.45;38.52;93252.16;5040621;28;7950;-56
2024/03/01 03:52:20;;;;;;;;;;;;;;;26.44;38.00;93245.94;5037940;28;9096;-56
2024/03/01 03:54:47;;;;;;;;;;;;;;;26.47;38.25;93250.34;5054730;28;9009;-38
2024/03/01 03:57:19;;;;;;;;;;;;;;;26.47;37.84;93253.09;5054824;28;8192;-38
2024/03/01 03:59:49;;;;;;;;;;;;;;;26.47;38.65;93255.84;5041288;28;9044;-38
2024/03/01 04:02:24;;;;;;;;;;;;;;;26.48;38.75;93249.06;5075683;28;7209;-38
2024/03/01 04:05:01;;;;;;;;;;;;;;;26.48;38.59;93253.84;5062530;28;7040;-38
2024/03/01 04:07:30;;;;;;;;;;;;;;;26.47;38.13;93249.63;5075611;28;6994;-38
2024/03/01 04:10:21;;;;;;;;;;;;;;;26.48;38.18;93267.63;5076411;28;7053;-37
2024/03/01 04:12:49;;;;;;;;;;;;;;;26.47;38.65;93260.66;5079470;28;7422;-38
2024/03/01 04:15:14;;;;;;;;;;;;;;;26.45;38.34;93265.94;5073315;28;7133;-38
2024/03/01 04:17:54;;;;;;;;;;;;;;;26.47;38.20;93269.66;5061517;28;7247;-38
2024/03/01 04:20:20;;;;;;;;;;;;;;;26.48;38.19;93273.16;5076646;28;7503;-37
2024/03/01 04:22:46;;;;;;;;;;;;;;;26.48;38.11;93270.38;5066006;28;9144;-38
2024/03/01 04:25:12;;;;;;;;;;;;;;;26.44;38.37;93267.25;5075881;28;6988;-38
2024/03/01 04:27:40;;;;;;;;;;;;;;;26.48;37.95;93267.63;5058869;28;7026;-38
2024/03/01 04:30:09;;;;;;;;;;;;;;;26.47;38.33;93271.69;5058100;28;7207;-38
2024/03/01 04:32:38;;;;;;;;;;;;;;;26.47;37.55;93272.41;5076452;28;9482;-38
2024/03/01 04:35:15;;;;;;;;;;;;;;;26.45;38.07;93272.22;5057527;28;7636;-38
2024/03/01 04:37:55;;;;;;;;;;;;;;;26.46;38.38;93268.19;5054995;28;9108;-37
2024/03/01 04:40:23;;;;;;;;;;;;;;;26.45;38.11;93274.22;5056235;28;7274;-38
2024/03/01 04:42:55;;;;;;;;;;;;;;;26.45;38.33;93274.97;5038589;28;7490;-38
2024/03/01 04:45:32;;;;;;;;;;;;;;;26.46;38.45;93286.75;5046255;28;7364;-38
2024/03/01 04:48:29;;;;;;;;;;;;;;;26.46;38.17;93295.00;5056715;28;7028;-38
2024/03/01 04:51:25;;;;;;;;;;;;;;;26.43;38.13;93294.06;4971613;28;7018;-38
2024/03/01 04:54:29;;;;;;;;;;;;;;;26.46;38.26;93300.53;4908068;29;9349;-38
2024/03/01 04:57:16;;;;;;;;;;;;;;;26.45;38.32;93301.78;4905637;29;7272;-37
2024/03/01 05:00:21;;;;;;;;;;;;;;;26.45;38.07;93301.78;4904222;29;7263;-38
2024/03/01 05:03:08;;;;;;;;;;;;;;;26.44;38.51;93303.09;4861501;29;9001;-38
2024/03/01 05:05:53;;;;;;;;;;;;;;;26.44;38.50;93311.38;4876442;29;7285;-42
2024/03/01 05:11:55;;;;;;;;;;;;;;;26.44;37.81;93303.84;4860355;29;7746;-43
2024/03/01 05:14:26;;;;;;;;;;;;;;;26.43;38.00;93298.84;4876837;29;9290;-42
2024/03/01 05:17:05;;;;;;;;;;;;;;;26.44;38.21;93314.13;4875805;29;7480;-42
2024/03/01 05:19:47;;;;;;;;;;;;;;;26.45;38.28;93307.31;4845844;29;7015;-43
2024/03/01 05:22:23;;;;;;;;;;;;;;;26.41;38.22;93301.41;4876731;29;7208;-42
2024/03/01 05:24:49;;;;;;;;;;;;;;;26.40;38.11;93311.72;4860681;29;8069;-43
2024/03/01 05:27:15;;;;;;;;;;;;;;;26.41;38.12;93313.19;4896049;28;9090;-42
2024/03/01 05:29:44;;;;;;;;;;;;;;;26.42;38.29;93325.69;4957474;28;7299;-44
2024/03/01 05:32:51;;;;;;;;;;;;;;;26.43;38.46;93326.41;4977072;28;7044;-42
2024/03/01 05:35:19;;;;;;;;;;;;;;;26.41;37.78;93317.94;4977199;28;8634;-44
2024/03/01 05:37:58;;;;;;;;;;;;;;;26.39;38.42;93320.50;5046392;28;7266;-42
2024/03/01 05:40:46;;;;;;;;;;;;;;;26.39;38.25;93326.03;5055185;28;7101;-42
2024/03/01 05:43:32;;;;;;;;;;;;;;;26.39;38.44;93329.53;5054369;28;7030;-42
2024/03/01 05:46:13;;;;;;;;;;;;;;;26.40;38.55;93328.25;5057228;28;9279;-42
2024/03/01 05:48:53;;;;;;;;;;;;;;;26.40;38.15;93333.03;5072729;28;7273;-42
2024/03/01 05:51:19;;;;;;;;;;;;;;;26.40;38.28;93328.25;5074478;28;7370;-42
2024/03/01 05:53:45;;;;;;;;;;;;;;;26.41;38.24;93337.25;5055869;28;7044;-42
2024/03/01 05:56:17;;;;;;;;;;;;;;;26.40;38.52;93328.25;5060609;28;7501;-42
2024/03/01 05:58:50;;;;;;;;;;;;;;;26.40;38.59;93336.53;5056519;28;9083;-43
2024/03/01 06:01:24;;;;;;;;;;;;;;;26.42;38.98;93331.22;5056692;28;7202;-43
2024/03/01 06:04:21;;;;;;;;;;;;;;;26.40;38.76;93338.53;5069659;28;9737;-39
2024/03/01 06:06:47;;;;;;;;;;;;;;;26.38;38.71;93336.31;5023916;28;7899;-39
2024/03/01 06:09:13;;;;;;;;;;;;;;;26.38;38.73;93343.88;5030995;28;9167;-39
2024/03/01 06:11:39;;;;;;;;;;;;;;;26.38;38.96;93338.34;5024520;28;9431;-39
2024/03/01 06:14:05;;;;;;;;;;;;;;;26.39;38.67;93348.09;5027063;28;6849;-39
2024/03/01 06:16:31;;;;;;;;;;;;;;;26.36;38.46;93344.38;5023286;28;9199;-39
2024/03/01 06:18:59;;;;;;;;;;;;;;;26.36;38.90;93355.41;5029253;28;7437;-41
2024/03/01 06:21:26;;;;;;;;;;;;;;;26.38;39.60;93357.66;5008594;28;7057;-40
2024/03/01 06:23:53;;;;;;;;;;;;;;;26.38;39.54;93357.66;5014873;28;9442;-42
2024/03/01 06:26:19;;;;;;;;;;;;;;;26.40;39.22;93355.09;5033321;28;8694;-40
2024/03/01 06:28:45;;;;;;;;;;;;;;;26.40;39.03;93364.09;5002502;28;7211;-40
2024/03/01 06:31:11;;;;;;;;;;;;;;;26.42;38.61;93364.31;5015719;28;6978;-38
2024/03/01 06:33:41;;;;;;;;;;;;;;;26.40;39.14;93374.38;5021419;28;7118;-39
2024/03/01 06:36:07;;;;;;;;;;;;;;;26.40;39.26;93372.38;5026886;28;7378;-40
2024/03/01 06:38:35;;;;;;;;;;;;;;;26.41;39.56;93376.59;5009599;28;9356;-41
2024/03/01 06:41:10;;;;;;;;;;;;;;;26.41;39.00;93373.09;5027658;28;7029;-41
2024/03/01 06:43:36;;;;;;;;;;;;;;;26.44;39.40;93383.06;5055380;28;7317;-39
2024/03/01 06:46:03;;;;;;;;;;;;;;;26.43;39.38;93381.56;5066797;28;7169;-39
2024/03/01 06:48:30;;;;;;;;;;;;;;;26.44;39.12;93385.81;5045551;28;8173;-40
2024/03/01 06:50:56;;;;;;;;;;;;;;;26.42;38.98;93386.34;5053836;28;7974;-38
2024/03/01 06:53:24;;;;;;;;;;;;;;;26.43;39.28;93387.81;5047002;28;7970;-39
2024/03/01 06:55:55;;;;;;;;;;;;;;;26.42;39.15;93391.13;5060923;28;7119;-39
2024/03/01 06:58:23;;;;;;;;;;;;;;;26.43;39.60;93387.06;5069707;28;9329;-39
2024/03/01 07:00:49;;;;;;;;;;;;;;;26.45;39.32;93393.53;5070464;28;9038;-39
2024/03/01 07:03:17;;;;;;;;;;;;;;;26.46;39.26;93391.53;5052493;28;9271;-40
2024/03/01 07:05:47;;;;;;;;;;;;;;;26.46;39.27;93389.50;5073374;28;7238;-39
2024/03/01 07:08:13;;;;;;;;;;;;;;;26.44;39.25;93383.78;5049729;28;8588;-41
2024/03/01 07:10:44;;;;;;;;;;;;;;;26.45;38.74;93388.00;5053624;28;7219;-39
2024/03/01 07:13:12;;;;;;;;;;;;;;;26.44;38.96;93394.06;5068779;28;7612;-39
2024/03/01 07:15:38;;;;;;;;;;;;;;;26.43;39.07;93392.59;5052995;28;7236;-39
2024/03/01 07:18:10;;;;;;;;;;;;;;;26.45;38.79;93396.28;5055929;28;7319;-39
2024/03/01 07:20:36;;;;;;;;;;;;;;;26.44;39.17;93385.81;5075725;28;9027;-40
2024/03/01 07:23:11;;;;;;;;;;;;;;;26.45;39.00;93395.53;5051114;28;7279;-39
2024/03/01 07:25:37;;;;;;;;;;;;;;;26.44;38.85;93388.56;5046148;28;9693;-40
2024/03/01 07:28:03;;;;;;;;;;;;;;;26.43;38.52;93392.59;5046369;28;7318;-40
2024/03/01 07:30:29;;;;;;;;;;;;;;;26.42;39.01;93391.13;5065663;28;9560;-39
2024/03/01 07:33:16;;;;;;;;;;;;;;;26.43;38.67;93396.09;5069374;28;7001;-40
2024/03/01 07:35:51;;;;;;;;;;;;;;;26.44;39.44;93394.06;5067018;28;7066;-39
2024/03/01 07:38:45;;;;;;;;;;;;;;;26.43;39.00;93390.56;5074114;28;7117;-38
2024/03/01 07:41:11;;;;;;;;;;;;;;;26.44;39.09;93388.56;5071746;28;8814;-39
2024/03/01 07:43:36;;;;;;;;;;;;;;;26.44;39.32;93391.31;5053550;28;7034;-39
2024/03/01 07:46:14;;;;;;;;;;;;;;;26.46;38.76;93391.53;5057399;28;9041;-39
2024/03/01 07:48:45;;;;;;;;;;;;;;;26.44;38.55;93388.56;5071583;28;9142;-39
2024/03/01 07:51:30;;;;;;;;;;;;;;;26.45;38.90;93388.00;5072900;28;9016;-38
2024/03/01 07:54:05;;;;;;;;;;;;;;;26.45;38.96;93382.50;5058202;28;7276;-39
2024/03/01 07:56:43;;;;;;;;;;;;;;;26.46;38.97;93386.00;5072494;28;9375;-38
2024/03/01 07:59:09;;;;;;;;;;;;;;;26.44;38.47;93391.31;5077124;28;7159;-39
2024/03/01 08:01:52;;;;;;;;;;;;;;;26.45;38.99;93390.78;5077551;28;9013;-39
2024/03/01 08:04:20;;;;;;;;;;;;;;;26.46;38.75;93388.75;5065315;28;7052;-38
2024/03/01 08:06:47;;;;;;;;;;;;;;;26.46;38.79;93386.00;5057653;28;9457;-39
2024/03/01 08:09:36;;;;;;;;;;;;;;;26.45;39.03;93396.28;5073393;28;7836;-39
2024/03/01 08:12:08;;;;;;;;;;;;;;;26.45;39.00;93392.78;5077218;28;7327;-39
2024/03/01 08:14:53;;;;;;;;;;;;;;;26.45;39.12;93395.53;5076696;28;7250;-39
2024/03/01 08:17:22;;;;;;;;;;;;;;;26.45;39.29;93392.78;5062539;28;7031;-39
2024/03/01 08:20:21;;;;;;;;;;;;;;;26.45;38.99;93390.78;5085098;28;7045;-38
2024/03/01 08:22:52;;;;;;;;;;;;;;;26.47;38.86;93388.22;5068959;28;9300;-40
2024/03/01 08:25:21;;;;;;;;;;;;;;;26.47;38.94;93393.72;5051847;28;7189;-56
2024/03/01 08:27:56;;;;;;;;;;;;;;;26.46;39.10;93388.75;5056626;28;7899;-56
2024/03/01 08:30:42;;;;;;;;;;;;;;;26.49;39.09;93384.94;5068866;28;9314;-56
2024/03/01 08:33:16;;;;;;;;;;;;;;;26.48;38.83;93388.97;5055998;28;7195;-56
2024/03/01 08:35:51;;;;;;;;;;;;;;;26.47;38.83;93390.25;5081660;28;7061;-56
2024/03/01 08:38:58;;;;;;;;;;;;;;;26.45;38.88;93392.78;5076147;28;7308;-56
2024/03/01 08:41:32;;;;;;;;;;;;;;;26.46;38.60;93386.00;5058146;28;8712;-56
2024/03/01 08:44:01;;;;;;;;;;;;;;;26.43;38.42;93395.34;5075396;28;7061;-56
2024/03/01 08:46:30;;;;;;;;;;;;;;;26.42;38.77;93385.63;5079063;28;7277;-56
2024/03/01 08:49:00;;;;;;;;;;;;;;;26.43;38.57;93389.81;5071118;28;8737;-56
2024/03/01 08:51:28;;;;;;;;;;;;;;;26.43;38.63;93389.81;5061883;28;8802;-56
2024/03/01 08:53:56;;;;;;;;;;;;;;;26.43;38.97;93387.06;5060533;28;6859;-56
2024/03/01 08:56:34;;;;;;;;;;;;;;;26.44;38.86;93388.56;5073932;28;7130;-56
2024/03/01 08:59:02;;;;;;;;;;;;;;;26.46;39.40;93388.75;5074720;28;7649;-56
2024/03/01 09:01:46;;;;;;;;;;;;;;;26.46;38.57;93388.75;5059881;28;7011;-55
2024/03/01 09:04:18;;;;;;;;;;;;;;;26.45;39.21;93379.75;5073954;28;7109;-56
2024/03/01 09:06:56;;;;;;;;;;;;;;;26.45;39.06;93382.50;5053373;28;7109;-55
2024/03/01 09:09:23;;;;;;;;;;;;;;;26.47;38.86;93382.69;5077607;28;9077;-55
2024/03/01 09:11:54;;;;;;;;;;;;;;;26.46;39.00;93386.75;5082381;28;9043;-56
2024/03/01 09:14:31;;;;;;;;;;;;;;;26.45;38.81;93382.50;5055170;28;7032;-56
2024/03/01 09:17:01;;;;;;;;;;;;;;;26.50;38.64;93386.41;5057724;28;6856;-57
2024/03/01 09:19:37;;;;;;;;;;;;;;;26.49;39.09;93384.94;5055600;28;9085;-56
2024/03/01 09:22:09;;;;;;;;;;;;;;;26.44;38.61;93380.28;5054121;28;9605;-56
2024/03/01 09:24:38;;;;;;;;;;;;;;;26.48;38.76;93386.94;5055122;28;7029;-56
2024/03/01 09:27:16;;;;;;;;;;;;;;;26.47;38.91;93381.97;5051733;28;8629;-56
2024/03/01 09:29:46;;;;;;;;;;;;;;;26.48;38.63;93375.16;5073705;28;7106;-57
2024/03/01 09:32:44;;;;;;;;;;;;;;;26.48;38.70;93375.91;5053461;28;7890;-56
2024/03/01 09:35:23;;;;;;;;;;;;;;;26.48;38.60;93375.91;5055776;28;9396;-39
2024/03/01 09:37:56;;;;;;;;;;;;;;;26.51;38.90;93374.09;5079244;28;9056;-39
2024/03/01 09:40:37;;;;;;;;;;;;;;;26.51;38.73;93372.06;5083602;28;7291;-39
2024/03/01 09:43:03;;;;;;;;;;;;;;;26.50;38.72;93376.13;5059459;28;7271;-39
2024/03/01 09:46:01;;;;;;;;;;;;;;;26.50;39.04;93372.59;5059477;28;9223;-38
2024/03/01 09:48:38;;;;;;;;;;;;;;;26.50;38.35;93375.38;4984572;28;7292;-39
2024/03/01 09:51:36;;;;;;;;;;;;;;;26.51;38.74;93372.06;4999396;28;7039;-39
2024/03/01 09:54:47;;;;;;;;;;;;;;;26.50;39.01;93375.38;4988201;28;7006;-39
2024/03/01 09:57:59;;;;;;;;;;;;;;;26.49;38.99;93373.91;4977575;28;6963;-39
2024/03/01 10:00:45;;;;;;;;;;;;;;;26.50;39.01;93380.88;4968933;28;9340;-40
2024/03/01 10:03:41;;;;;;;;;;;;;;;26.47;38.88;93370.94;4979035;28;8700;-39
2024/03/01 10:06:26;;;;;;;;;;;;;;;26.47;39.27;93376.47;4977838;28;7263;-39
2024/03/01 10:09:12;;;;;;;;;;;;;;;26.48;39.03;93367.63;4975406;28;7147;-39
2024/03/01 10:12:19;;;;;;;;;;;;;;;26.46;38.91;93370.22;4997190;28;7092;-39
2024/03/01 10:15:18;;;;;;;;;;;;;;;26.46;38.92;93370.22;4997618;28;7020;-39
2024/03/01 10:18:32;;;;;;;;;;;;;;;26.39;39.72;93370.88;4973477;28;7255;-38
2024/03/01 10:21:17;;;;;;;;;;;;;;;26.35;39.66;93369.75;4917588;29;7213;-39
2024/03/01 10:24:35;;;;;;;;;;;;;;;26.29;40.09;93372.66;4955220;28;8860;-39
2024/03/01 10:27:23;;;;;;;;;;;;;;;26.25;39.74;93371.50;5010625;28;7242;-39
2024/03/01 10:30:02;;;;;;;;;;;;;;;26.25;40.30;93371.50;5005452;28;8486;-39
2024/03/01 10:32:38;;;;;;;;;;;;;;;26.25;40.12;93364.00;5019502;28;7036;-40
2024/03/01 10:35:21;;;;;;;;;;;;;;;26.28;39.54;93360.13;5028671;28;9090;-39
2024/03/01 10:38:19;;;;;;;;;;;;;;;26.32;39.58;93355.03;5029006;28;9254;-39
2024/03/01 10:41:24;;;;;;;;;;;;;;;26.38;39.75;93361.13;5022304;28;7046;-39
2024/03/01 10:44:37;;;;;;;;;;;;;;;26.39;39.47;93359.84;5030577;28;9699;-56
2024/03/01 10:47:18;;;;;;;;;;;;;;;26.40;39.27;93355.09;4934799;29;7659;-55
2024/03/01 10:50:01;;;;;;;;;;;;;;;26.41;38.96;93362.06;4934376;29;9203;-55
2024/03/01 10:52:35;;;;;;;;;;;;;;;26.42;39.04;93358.03;4933119;29;9241;-56
2024/03/01 10:55:05;;;;;;;;;;;;;;;26.42;39.44;93350.50;4916287;29;7639;-56
2024/03/01 10:57:40;;;;;;;;;;;;;;;26.41;39.85;93351.78;4932102;29;8087;-55
2024/03/01 11:00:12;;;;;;;;;;;;;;;26.42;38.69;93353.28;4935475;29;9189;-55
2024/03/01 11:02:50;;;;;;;;;;;;;;;26.44;39.40;93349.97;4953196;29;8793;-55
2024/03/01 11:05:19;;;;;;;;;;;;;;;26.43;39.31;93342.97;4949534;29;7359;-56
2024/03/01 11:08:18;;;;;;;;;;;;;;;26.45;39.14;93346.66;4944323;29;7072;-55
2024/03/01 11:11:00;;;;;;;;;;;;;;;26.48;39.03;93345.59;4936150;29;7058;-55
2024/03/01 11:13:30;;;;;;;;;;;;;;;26.51;39.47;93346.53;4932674;29;7269;-55
2024/03/01 11:15:58;;;;;;;;;;;;;;;26.49;39.10;93341.53;4947955;29;7060;-55
2024/03/01 11:18:35;;;;;;;;;;;;;;;26.53;38.94;93341.19;4935554;29;8519;-55
2024/03/01 11:21:09;;;;;;;;;;;;;;;26.51;39.12;93336.22;4951228;29;9322;-56
2024/03/01 11:23:55;;;;;;;;;;;;;;;26.52;38.85;93336.97;4993826;28;7334;-56
2024/03/01 11:26:43;;;;;;;;;;;;;;;26.51;38.87;93329.97;5084419;28;7030;-56
2024/03/01 11:29:22;;;;;;;;;;;;;;;26.53;39.58;93335.69;5059141;28;7056;-56
2024/03/01 11:32:08;;;;;;;;;;;;;;;26.52;39.15;93331.44;5066695;28;7310;-55
2024/03/01 11:34:47;;;;;;;;;;;;;;;26.53;39.48;93328.16;5062164;28;9027;-56
2024/03/01 11:37:27;;;;;;;;;;;;;;;26.51;39.47;93316.19;5073052;28;8722;-55
2024/03/01 11:40:09;;;;;;;;;;;;;;;26.52;39.66;93318.41;5065987;28;7236;-56
2024/03/01 11:43:17;;;;;;;;;;;;;;;26.51;39.14;93310.69;5075008;28;7273;-57
2024/03/01 11:46:39;;;;;;;;;;;;;;;26.52;39.40;93312.13;5068873;28;7585;-55
2024/03/01 11:49:32;;;;;;;;;;;;;;;26.53;39.54;93308.13;5034735;28;7018;-55
2024/03/01 11:52:42;;;;;;;;;;;;;;;26.52;39.55;93304.59;5025495;28;9439;-56
2024/03/01 11:55:17;;;;;;;;;;;;;;;26.53;39.09;93297.81;5032911;28;8954;-38
2024/03/01 11:57:52;;;;;;;;;;;;;;;26.53;39.50;93303.34;5013741;28;7214;-38
2024/03/01 12:00:49;;;;;;;;;;;;;;;26.58;39.51;93298.94;5017881;28;7369;-38
2024/03/01 12:03:42;;;;;;;;;;;;;;;26.61;39.06;93287.56;4946727;28;7025;-39
2024/03/01 12:06:35;;;;;;;;;;;;;;;26.61;39.14;93292.34;4899277;29;7273;-39
2024/03/01 12:09:23;;;;;;;;;;;;;;;26.57;38.68;93289.94;4911359;29;7394;-39
2024/03/01 12:12:04;;;;;;;;;;;;;;;26.58;38.65;93283.13;4918647;29;9074;-38
2024/03/01 12:14:39;;;;;;;;;;;;;;;26.57;38.63;93280.91;4912954;29;8970;-39
2024/03/01 12:17:23;;;;;;;;;;;;;;;26.58;38.53;93282.38;4883430;29;6957;-39
2024/03/01 12:20:06;;;;;;;;;;;;;;;26.58;38.98;93276.88;4901017;29;8984;-39
2024/03/01 12:23:14;;;;;;;;;;;;;;;26.59;39.08;93273.59;4901844;29;7028;-39
2024/03/01 12:25:41;;;;;;;;;;;;;;;26.57;38.98;93267.88;4892315;29;7039;-38
2024/03/01 12:28:45;;;;;;;;;;;;;;;26.60;38.49;93266.78;4918176;29;8816;-38
2024/03/01 12:31:55;;;;;;;;;;;;;;;26.60;38.79;93275.03;4916516;29;8643;-38
2024/03/01 12:35:07;;;;;;;;;;;;;;;26.59;38.80;93268.06;4908557;29;9001;-39
2024/03/01 12:38:17;;;;;;;;;;;;;;;26.57;38.83;93262.34;4891143;29;6989;-38
2024/03/01 12:41:01;;;;;;;;;;;;;;;26.61;38.71;93259.25;4955153;28;7123;-38
2024/03/01 12:43:56;;;;;;;;;;;;;;;26.61;38.55;93262.00;4996584;28;8817;-39
2024/03/01 12:47:01;;;;;;;;;;;;;;;26.61;38.13;93253.72;5024553;28;7362;-39
2024/03/01 12:49:58;;;;;;;;;;;;;;;26.61;38.56;93262.75;5039722;28;7571;-39
2024/03/01 12:52:46;;;;;;;;;;;;;;;26.58;38.50;93250.03;5026215;28;7899;-38
2024/03/01 12:55:51;;;;;;;;;;;;;;;26.59;38.36;93251.53;5029306;28;7031;-39
2024/03/01 12:59:04;;;;;;;;;;;;;;;26.57;38.75;93245.81;5016519;28;8731;-40
2024/03/01 13:02:18;;;;;;;;;;;;;;;26.59;38.03;93245.25;4975025;28;7271;-39
2024/03/01 13:05:14;;;;;;;;;;;;;;;26.59;38.63;93251.53;4913710;29;7186;-37
2024/03/01 13:08:30;;;;;;;;;;;;;;;26.61;38.43;93242.69;4873886;29;8792;-37
2024/03/01 13:11:22;;;;;;;;;;;;;;;26.62;38.65;93244.19;4868428;29;9358;-37
2024/03/01 13:18:09;;;;;;;;;;;;;;;26.64;38.33;93245.09;4878855;29;7069;-37
2024/03/01 13:21:05;;;;;;;;;;;;;;;26.62;38.58;93238.66;4831142;29;7057;-37
2024/03/01 13:23:54;;;;;;;;;;;;;;;26.64;38.45;93236.81;4841157;29;7030;-37
2024/03/01 13:26:35;;;;;;;;;;;;;;;26.63;38.41;93232.59;4783785;30;8044;-37
2024/03/01 13:29:16;;;;;;;;;;;;;;;26.61;38.26;93232.41;4774188;30;7572;-37
2024/03/01 13:32:08;;;;;;;;;;;;;;;26.62;38.87;93231.09;4785227;30;7763;-37
2024/03/01 13:35:01;;;;;;;;;;;;;;;26.61;38.57;93229.66;4787936;30;7876;-37
2024/03/01 13:38:09;;;;;;;;;;;;;;;26.63;38.77;93235.34;4793124;29;7766;-37
2024/03/01 13:40:46;;;;;;;;;;;;;;;26.65;38.63;93229.28;4772716;29;7580;-37
2024/03/01 13:43:43;;;;;;;;;;;;;;;26.65;38.69;93223.78;4771695;30;7839;-37
2024/03/01 13:46:15;;;;;;;;;;;;;;;26.67;38.63;93223.97;4807168;29;9049;-37
2024/03/01 13:48:49;;;;;;;;;;;;;;;26.67;38.54;93226.72;4828035;29;7275;-37
2024/03/01 13:51:27;;;;;;;;;;;;;;;26.64;38.46;93225.06;4834722;29;7388;-37
2024/03/01 13:54:33;;;;;;;;;;;;;;;26.63;38.36;93218.81;4871209;29;7471;-37
2024/03/01 13:57:31;;;;;;;;;;;;;;;26.61;38.65;93220.63;4889399;29;8983;-37
2024/03/01 14:00:14;;;;;;;;;;;;;;;26.61;38.82;93215.13;4872251;29;7916;-37